sensor_id;sensor_type;location;lat;lon;timestamp;temperature;humidity
13186;DHT22;6658;53.080;7.428;2023-07-16T00:09:37;16.70;99.90
13186;DHT22;6658;53.080;7.428;2023-07-16T00:12:14;16.70;99.90
13186;DHT22;6658;53.080;7.428;2023-07-16T00:17:35;16.80;99.90
13186;DHT22;6658;53.080;7.428;2023-07-16T00:20:12;16.70;99.90
13186;DHT22;6658;53.080;7.428;2023-07-16T00:22:41;16.70;99.90
13186;DHT22;6658;53.080;7.428;2023-07-16T00:25:14;16.70;99.90
13186;DHT22;6658;53.080;7.428;2023-07-16T00:31:22;16.60;99.90
13186;DHT22;6658;53.080;7.428;2023-07-16T00:34:38;16.60;99.90
13186;DHT22;6658;53.080;7.428;2023-07-16T00:37:35;16.50;99.90
13186;DHT22;6658;53.080;7.428;2023-07-16T00:43:51;16.40;99.90
13186;DHT22;6658;53.080;7.428;2023-07-16T00:46:38;16.40;99.90
13186;DHT22;6658;53.080;7.428;2023-07-16T00:49:42;16.30;99.90
13186;DHT22;6658;53.080;7.428;2023-07-16T00:52:32;16.30;99.90
13186;DHT22;6658;53.080;7.428;2023-07-16T00:55:56;16.20;99.90
13186;DHT22;6658;53.080;7.428;2023-07-16T01:15:50;16.00;99.90
13186;DHT22;6658;53.080;7.428;2023-07-16T01:30:18;15.60;99.90
13186;DHT22;6658;53.080;7.428;2023-07-16T01:36:53;15.60;99.90
13186;DHT22;6658;53.080;7.428;2023-07-16T01:40:38;15.50;99.90
13186;DHT22;6658;53.080;7.428;2023-07-16T01:42:41;15.60;99.90
13186;DHT22;6658;53.080;7.428;2023-07-16T01:45:16;15.50;99.90
13186;DHT22;6658;53.080;7.428;2023-07-16T01:50:33;15.50;99.90
13186;DHT22;6658;53.080;7.428;2023-07-16T01:53:02;15.50;99.90
13186;DHT22;6658;53.080;7.428;2023-07-16T01:58:46;15.50;99.90
13186;DHT22;6658;53.080;7.428;2023-07-16T02:05:23;15.40;99.90
13186;DHT22;6658;53.080;7.428;2023-07-16T02:07:59;15.50;99.90
13186;DHT22;6658;53.080;7.428;2023-07-16T02:13:44;15.50;99.90
13186;DHT22;6658;53.080;7.428;2023-07-16T02:16:13;15.50;99.90
13186;DHT22;6658;53.080;7.428;2023-07-16T02:18:54;15.60;99.90
13186;DHT22;6658;53.080;7.428;2023-07-16T02:21:38;15.60;99.90
13186;DHT22;6658;53.080;7.428;2023-07-16T02:24:04;15.60;99.90
13186;DHT22;6658;53.080;7.428;2023-07-16T02:26:35;15.70;99.90
13186;DHT22;6658;53.080;7.428;2023-07-16T02:29:03;15.70;99.90
13186;DHT22;6658;53.080;7.428;2023-07-16T02:31:32;15.70;99.90
13186;DHT22;6658;53.080;7.428;2023-07-16T02:33:57;15.70;99.90
13186;DHT22;6658;53.080;7.428;2023-07-16T02:36:33;15.70;99.90
13186;DHT22;6658;53.080;7.428;2023-07-16T02:39:01;15.60;99.90
13186;DHT22;6658;53.080;7.428;2023-07-16T02:41:32;15.60;99.90
13186;DHT22;6658;53.080;7.428;2023-07-16T02:48:00;15.60;99.90
13186;DHT22;6658;53.080;7.428;2023-07-16T02:54:21;15.50;99.90
13186;DHT22;6658;53.080;7.428;2023-07-16T02:57:24;15.50;99.90
13186;DHT22;6658;53.080;7.428;2023-07-16T02:59:53;15.40;99.90
13186;DHT22;6658;53.080;7.428;2023-07-16T03:09:12;15.30;99.90
13186;DHT22;6658;53.080;7.428;2023-07-16T03:11:37;15.30;99.90
13186;DHT22;6658;53.080;7.428;2023-07-16T03:14:09;15.20;99.90
13186;DHT22;6658;53.080;7.428;2023-07-16T03:17:04;15.20;99.90
13186;DHT22;6658;53.080;7.428;2023-07-16T03:33:25;15.30;99.90
13186;DHT22;6658;53.080;7.428;2023-07-16T03:41:24;15.40;99.90
13186;DHT22;6658;53.080;7.428;2023-07-16T03:47:45;15.40;99.90
13186;DHT22;6658;53.080;7.428;2023-07-16T03:50:16;15.40;99.90
13186;DHT22;6658;53.080;7.428;2023-07-16T03:56:36;15.50;99.90
13186;DHT22;6658;53.080;7.428;2023-07-16T03:59:33;15.60;99.90
13186;DHT22;6658;53.080;7.428;2023-07-16T04:02:07;15.60;99.90
13186;DHT22;6658;53.080;7.428;2023-07-16T04:04:56;15.60;99.90
13186;DHT22;6658;53.080;7.428;2023-07-16T04:07:37;15.70;99.90
13186;DHT22;6658;53.080;7.428;2023-07-16T04:10:50;15.70;99.90
13186;DHT22;6658;53.080;7.428;2023-07-16T04:13:16;15.70;99.90
13186;DHT22;6658;53.080;7.428;2023-07-16T04:15:50;15.80;99.90
13186;DHT22;6658;53.080;7.428;2023-07-16T04:18:40;15.80;99.90
13186;DHT22;6658;53.080;7.428;2023-07-16T04:21:35;15.80;99.90
13186;DHT22;6658;53.080;7.428;2023-07-16T04:36:45;16.70;99.90
13186;DHT22;6658;53.080;7.428;2023-07-16T04:39:10;17.20;99.90
13186;DHT22;6658;53.080;7.428;2023-07-16T04:41:36;17.50;99.90
13186;DHT22;6658;53.080;7.428;2023-07-16T04:44:23;17.80;99.90
13186;DHT22;6658;53.080;7.428;2023-07-16T04:46:49;18.20;99.90
13186;DHT22;6658;53.080;7.428;2023-07-16T04:49:20;18.40;99.90
13186;DHT22;6658;53.080;7.428;2023-07-16T04:51:46;18.60;99.90
13186;DHT22;6658;53.080;7.428;2023-07-16T04:54:26;18.90;99.90
13186;DHT22;6658;53.080;7.428;2023-07-16T04:57:17;19.20;99.90
13186;DHT22;6658;53.080;7.428;2023-07-16T04:59:49;19.50;99.90
13186;DHT22;6658;53.080;7.428;2023-07-16T05:02:14;19.70;99.90
13186;DHT22;6658;53.080;7.428;2023-07-16T05:04:48;19.80;99.90
13186;DHT22;6658;53.080;7.428;2023-07-16T05:07:36;20.00;99.90
13186;DHT22;6658;53.080;7.428;2023-07-16T05:10:20;20.10;99.90
13186;DHT22;6658;53.080;7.428;2023-07-16T05:13:07;20.20;99.90
13186;DHT22;6658;53.080;7.428;2023-07-16T05:15:59;20.30;99.90
13186;DHT22;6658;53.080;7.428;2023-07-16T05:18:33;20.40;99.90
13186;DHT22;6658;53.080;7.428;2023-07-16T05:21:02;20.60;99.90
13186;DHT22;6658;53.080;7.428;2023-07-16T05:23:30;20.60;99.90
13186;DHT22;6658;53.080;7.428;2023-07-16T05:25:56;20.70;99.90
13186;DHT22;6658;53.080;7.428;2023-07-16T05:28:22;20.90;99.90
13186;DHT22;6658;53.080;7.428;2023-07-16T05:30:48;21.10;99.90
13186;DHT22;6658;53.080;7.428;2023-07-16T05:33:32;21.30;99.90
13186;DHT22;6658;53.080;7.428;2023-07-16T05:36:01;21.50;99.90
13186;DHT22;6658;53.080;7.428;2023-07-16T05:38:38;21.50;99.90
13186;DHT22;6658;53.080;7.428;2023-07-16T05:41:24;21.80;99.90
13186;DHT22;6658;53.080;7.428;2023-07-16T05:43:55;21.90;99.90
13186;DHT22;6658;53.080;7.428;2023-07-16T05:46:24;22.00;99.90
13186;DHT22;6658;53.080;7.428;2023-07-16T05:51:49;22.00;99.90
13186;DHT22;6658;53.080;7.428;2023-07-16T05:54:29;22.00;99.90
13186;DHT22;6658;53.080;7.428;2023-07-16T05:56:57;22.10;99.90
13186;DHT22;6658;53.080;7.428;2023-07-16T05:59:23;22.20;99.90
13186;DHT22;6658;53.080;7.428;2023-07-16T06:01:49;22.30;99.90
13186;DHT22;6658;53.080;7.428;2023-07-16T06:04:29;22.40;99.90
13186;DHT22;6658;53.080;7.428;2023-07-16T06:06:56;22.50;99.90
13186;DHT22;6658;53.080;7.428;2023-07-16T06:09:22;22.60;99.90
13186;DHT22;6658;53.080;7.428;2023-07-16T06:11:48;22.60;99.90
13186;DHT22;6658;53.080;7.428;2023-07-16T06:14:14;22.60;99.90
13186;DHT22;6658;53.080;7.428;2023-07-16T06:16:58;22.70;99.90
13186;DHT22;6658;53.080;7.428;2023-07-16T06:19:24;22.70;99.90
13186;DHT22;6658;53.080;7.428;2023-07-16T06:21:49;22.70;99.90
13186;DHT22;6658;53.080;7.428;2023-07-16T06:24:15;22.80;99.90
13186;DHT22;6658;53.080;7.428;2023-07-16T06:26:41;22.90;99.90
13186;DHT22;6658;53.080;7.428;2023-07-16T06:29:06;23.00;99.90
13186;DHT22;6658;53.080;7.428;2023-07-16T06:31:35;22.90;99.90
13186;DHT22;6658;53.080;7.428;2023-07-16T06:34:10;23.00;99.90
13186;DHT22;6658;53.080;7.428;2023-07-16T06:36:38;23.10;99.90
13186;DHT22;6658;53.080;7.428;2023-07-16T06:39:21;23.20;99.90
13186;DHT22;6658;53.080;7.428;2023-07-16T06:41:47;23.10;99.90
13186;DHT22;6658;53.080;7.428;2023-07-16T06:44:12;22.90;99.90
13186;DHT22;6658;53.080;7.428;2023-07-16T06:46:38;22.70;99.90
13186;DHT22;6658;53.080;7.428;2023-07-16T06:49:13;22.90;99.90
13186;DHT22;6658;53.080;7.428;2023-07-16T06:51:41;22.90;99.90
13186;DHT22;6658;53.080;7.428;2023-07-16T06:54:07;23.00;99.90
13186;DHT22;6658;53.080;7.428;2023-07-16T06:56:33;22.90;99.90
13186;DHT22;6658;53.080;7.428;2023-07-16T06:58:59;22.80;99.90
13186;DHT22;6658;53.080;7.428;2023-07-16T07:01:25;22.80;99.90
13186;DHT22;6658;53.080;7.428;2023-07-16T07:04:02;22.90;99.90
13186;DHT22;6658;53.080;7.428;2023-07-16T07:06:30;23.10;99.90
13186;DHT22;6658;53.080;7.428;2023-07-16T07:09:07;23.10;99.90
13186;DHT22;6658;53.080;7.428;2023-07-16T07:11:33;23.10;99.90
13186;DHT22;6658;53.080;7.428;2023-07-16T07:13:58;23.40;99.90
13186;DHT22;6658;53.080;7.428;2023-07-16T07:16:24;23.60;99.90
13186;DHT22;6658;53.080;7.428;2023-07-16T07:18:50;23.70;99.90
13186;DHT22;6658;53.080;7.428;2023-07-16T07:21:15;23.80;99.90
13186;DHT22;6658;53.080;7.428;2023-07-16T07:23:50;23.80;99.90
13186;DHT22;6658;53.080;7.428;2023-07-16T07:26:16;23.90;99.90
13186;DHT22;6658;53.080;7.428;2023-07-16T07:28:42;23.90;99.90
13186;DHT22;6658;53.080;7.428;2023-07-16T07:31:18;24.00;99.90
13186;DHT22;6658;53.080;7.428;2023-07-16T07:33:43;23.90;99.90
13186;DHT22;6658;53.080;7.428;2023-07-16T07:36:14;24.20;99.90
13186;DHT22;6658;53.080;7.428;2023-07-16T07:39:03;24.40;99.90
13186;DHT22;6658;53.080;7.428;2023-07-16T07:41:32;24.50;99.90
13186;DHT22;6658;53.080;7.428;2023-07-16T07:43:57;24.50;99.90
13186;DHT22;6658;53.080;7.428;2023-07-16T07:46:23;24.50;99.90
13186;DHT22;6658;53.080;7.428;2023-07-16T07:48:52;24.60;99.90
13186;DHT22;6658;53.080;7.428;2023-07-16T07:51:19;24.80;99.90
13186;DHT22;6658;53.080;7.428;2023-07-16T07:53:45;24.90;99.90
13186;DHT22;6658;53.080;7.428;2023-07-16T07:56:17;24.90;99.90
13186;DHT22;6658;53.080;7.428;2023-07-16T07:58:43;25.10;99.90
13186;DHT22;6658;53.080;7.428;2023-07-16T08:01:09;25.20;99.90
13186;DHT22;6658;53.080;7.428;2023-07-16T08:03:48;25.40;99.90
13186;DHT22;6658;53.080;7.428;2023-07-16T08:06:19;25.40;99.90
13186;DHT22;6658;53.080;7.428;2023-07-16T08:08:47;25.70;99.90
13186;DHT22;6658;53.080;7.428;2023-07-16T08:11:13;26.00;99.90
13186;DHT22;6658;53.080;7.428;2023-07-16T08:14:02;26.00;99.90
13186;DHT22;6658;53.080;7.428;2023-07-16T08:16:28;26.10;99.90
13186;DHT22;6658;53.080;7.428;2023-07-16T08:18:53;26.00;99.90
13186;DHT22;6658;53.080;7.428;2023-07-16T08:21:19;25.80;99.90
13186;DHT22;6658;53.080;7.428;2023-07-16T08:23:51;25.70;99.90
13186;DHT22;6658;53.080;7.428;2023-07-16T08:26:17;25.70;99.90
13186;DHT22;6658;53.080;7.428;2023-07-16T08:28:43;25.70;99.90
13186;DHT22;6658;53.080;7.428;2023-07-16T08:31:15;25.60;99.90
13186;DHT22;6658;53.080;7.428;2023-07-16T08:33:48;25.80;99.90
13186;DHT22;6658;53.080;7.428;2023-07-16T08:36:16;26.10;99.90
13186;DHT22;6658;53.080;7.428;2023-07-16T08:38:42;26.60;99.90
13186;DHT22;6658;53.080;7.428;2023-07-16T08:41:08;27.00;99.90
13186;DHT22;6658;53.080;7.428;2023-07-16T08:46:26;26.90;99.90
13186;DHT22;6658;53.080;7.428;2023-07-16T08:48:52;26.90;99.90
13186;DHT22;6658;53.080;7.428;2023-07-16T08:51:28;27.10;99.90
13186;DHT22;6658;53.080;7.428;2023-07-16T08:54:00;27.30;99.90
13186;DHT22;6658;53.080;7.428;2023-07-16T08:56:26;26.80;99.90
13186;DHT22;6658;53.080;7.428;2023-07-16T08:59:05;26.40;99.90
13186;DHT22;6658;53.080;7.428;2023-07-16T09:01:34;26.20;99.90
13186;DHT22;6658;53.080;7.428;2023-07-16T09:04:00;26.30;99.90
13186;DHT22;6658;53.080;7.428;2023-07-16T09:06:31;26.30;99.90
13186;DHT22;6658;53.080;7.428;2023-07-16T09:08:57;26.30;99.90
13186;DHT22;6658;53.080;7.428;2023-07-16T09:11:23;26.20;99.90
13186;DHT22;6658;53.080;7.428;2023-07-16T09:13:49;25.60;99.90
13186;DHT22;6658;53.080;7.428;2023-07-16T09:16:18;25.30;99.90
13186;DHT22;6658;53.080;7.428;2023-07-16T09:22:18;24.60;99.90
13186;DHT22;6658;53.080;7.428;2023-07-16T09:25:11;24.90;99.90
13186;DHT22;6658;53.080;7.428;2023-07-16T09:27:40;25.50;99.90
13186;DHT22;6658;53.080;7.428;2023-07-16T09:30:06;25.60;99.90
13186;DHT22;6658;53.080;7.428;2023-07-16T09:32:38;25.50;99.90
13186;DHT22;6658;53.080;7.428;2023-07-16T09:35:10;25.10;99.90
13186;DHT22;6658;53.080;7.428;2023-07-16T09:37:40;24.70;99.90
13186;DHT22;6658;53.080;7.428;2023-07-16T09:40:13;24.40;99.90
13186;DHT22;6658;53.080;7.428;2023-07-16T09:42:41;24.30;99.90
13186;DHT22;6658;53.080;7.428;2023-07-16T09:45:21;24.50;99.90
13186;DHT22;6658;53.080;7.428;2023-07-16T09:47:59;25.10;99.90
13186;DHT22;6658;53.080;7.428;2023-07-16T09:50:35;25.40;99.90
13186;DHT22;6658;53.080;7.428;2023-07-16T09:53:05;25.30;99.90
13186;DHT22;6658;53.080;7.428;2023-07-16T09:55:34;25.10;99.90
13186;DHT22;6658;53.080;7.428;2023-07-16T09:58:02;24.90;99.90
13186;DHT22;6658;53.080;7.428;2023-07-16T10:00:29;25.10;99.90
13186;DHT22;6658;53.080;7.428;2023-07-16T10:03:02;25.60;99.90
13186;DHT22;6658;53.080;7.428;2023-07-16T10:05:28;26.80;99.90
13186;DHT22;6658;53.080;7.428;2023-07-16T10:08:01;27.90;99.90
13186;DHT22;6658;53.080;7.428;2023-07-16T10:10:39;28.50;99.90
13186;DHT22;6658;53.080;7.428;2023-07-16T10:13:07;29.00;98.00
13186;DHT22;6658;53.080;7.428;2023-07-16T10:15:36;28.50;99.10
13186;DHT22;6658;53.080;7.428;2023-07-16T10:18:26;28.30;98.80
13186;DHT22;6658;53.080;7.428;2023-07-16T10:21:03;27.50;99.80
13186;DHT22;6658;53.080;7.428;2023-07-16T10:23:44;26.70;99.90
13186;DHT22;6658;53.080;7.428;2023-07-16T10:26:16;26.10;99.90
13186;DHT22;6658;53.080;7.428;2023-07-16T10:28:44;26.20;99.90
13186;DHT22;6658;53.080;7.428;2023-07-16T10:31:21;26.30;99.90
13186;DHT22;6658;53.080;7.428;2023-07-16T10:34:01;26.00;99.90
13186;DHT22;6658;53.080;7.428;2023-07-16T10:36:27;25.80;99.90
13186;DHT22;6658;53.080;7.428;2023-07-16T10:38:53;25.40;99.90
13186;DHT22;6658;53.080;7.428;2023-07-16T10:41:19;25.10;99.90
13186;DHT22;6658;53.080;7.428;2023-07-16T10:43:45;25.10;99.90
13186;DHT22;6658;53.080;7.428;2023-07-16T10:46:11;25.00;99.90
13186;DHT22;6658;53.080;7.428;2023-07-16T10:56:23;26.80;99.90
13186;DHT22;6658;53.080;7.428;2023-07-16T10:58:49;26.70;99.90
13186;DHT22;6658;53.080;7.428;2023-07-16T11:01:14;26.60;99.90
13186;DHT22;6658;53.080;7.428;2023-07-16T11:03:40;26.30;99.90
13186;DHT22;6658;53.080;7.428;2023-07-16T11:06:09;26.10;99.90
13186;DHT22;6658;53.080;7.428;2023-07-16T11:08:35;25.90;99.90
13186;DHT22;6658;53.080;7.428;2023-07-16T11:11:00;25.70;99.90
13186;DHT22;6658;53.080;7.428;2023-07-16T11:13:27;25.60;99.90
13186;DHT22;6658;53.080;7.428;2023-07-16T11:15:54;25.50;99.90
13186;DHT22;6658;53.080;7.428;2023-07-16T11:18:25;25.50;99.90
13186;DHT22;6658;53.080;7.428;2023-07-16T11:20:52;25.30;99.90
13186;DHT22;6658;53.080;7.428;2023-07-16T11:23:19;24.90;99.90
13186;DHT22;6658;53.080;7.428;2023-07-16T11:25:48;24.60;99.90
13186;DHT22;6658;53.080;7.428;2023-07-16T11:28:14;24.10;99.90
13186;DHT22;6658;53.080;7.428;2023-07-16T11:30:40;23.60;99.90
13186;DHT22;6658;53.080;7.428;2023-07-16T11:33:12;23.30;99.90
13186;DHT22;6658;53.080;7.428;2023-07-16T11:35:38;23.00;99.90
13186;DHT22;6658;53.080;7.428;2023-07-16T11:38:05;23.00;99.90
13186;DHT22;6658;53.080;7.428;2023-07-16T11:40:35;23.10;99.90
13186;DHT22;6658;53.080;7.428;2023-07-16T11:43:10;23.30;99.90
13186;DHT22;6658;53.080;7.428;2023-07-16T11:45:36;23.50;99.90
13186;DHT22;6658;53.080;7.428;2023-07-16T11:48:03;24.10;99.90
13186;DHT22;6658;53.080;7.428;2023-07-16T11:50:30;24.90;99.90
13186;DHT22;6658;53.080;7.428;2023-07-16T11:52:59;25.00;99.90
13186;DHT22;6658;53.080;7.428;2023-07-16T11:55:25;24.90;99.90
13186;DHT22;6658;53.080;7.428;2023-07-16T11:57:51;24.80;99.90
13186;DHT22;6658;53.080;7.428;2023-07-16T12:00:16;24.60;99.90
13186;DHT22;6658;53.080;7.428;2023-07-16T12:02:45;24.30;99.90
13186;DHT22;6658;53.080;7.428;2023-07-16T12:05:18;24.30;99.90
13186;DHT22;6658;53.080;7.428;2023-07-16T12:07:44;24.60;99.90
13186;DHT22;6658;53.080;7.428;2023-07-16T12:10:10;24.50;99.90
13186;DHT22;6658;53.080;7.428;2023-07-16T12:12:35;24.40;99.90
13186;DHT22;6658;53.080;7.428;2023-07-16T12:15:07;24.10;99.90
13186;DHT22;6658;53.080;7.428;2023-07-16T12:17:33;23.90;99.90
13186;DHT22;6658;53.080;7.428;2023-07-16T12:19:59;23.70;99.90
13186;DHT22;6658;53.080;7.428;2023-07-16T12:22:25;23.60;99.90
13186;DHT22;6658;53.080;7.428;2023-07-16T12:24:51;23.50;99.90
13186;DHT22;6658;53.080;7.428;2023-07-16T12:27:18;23.70;99.90
13186;DHT22;6658;53.080;7.428;2023-07-16T12:29:45;23.70;99.90
13186;DHT22;6658;53.080;7.428;2023-07-16T12:32:11;23.60;99.90
13186;DHT22;6658;53.080;7.428;2023-07-16T12:34:37;23.50;99.90
13186;DHT22;6658;53.080;7.428;2023-07-16T12:37:02;23.60;99.90
13186;DHT22;6658;53.080;7.428;2023-07-16T12:39:28;23.70;99.90
13186;DHT22;6658;53.080;7.428;2023-07-16T12:41:54;23.90;99.90
13186;DHT22;6658;53.080;7.428;2023-07-16T12:44:20;24.20;99.90
13186;DHT22;6658;53.080;7.428;2023-07-16T12:46:45;24.30;99.90
13186;DHT22;6658;53.080;7.428;2023-07-16T12:49:11;24.40;99.90
13186;DHT22;6658;53.080;7.428;2023-07-16T12:51:37;24.50;99.90
13186;DHT22;6658;53.080;7.428;2023-07-16T12:54:02;24.60;99.90
13186;DHT22;6658;53.080;7.428;2023-07-16T12:56:28;24.50;99.90
13186;DHT22;6658;53.080;7.428;2023-07-16T12:58:54;24.50;99.90
13186;DHT22;6658;53.080;7.428;2023-07-16T13:01:19;24.30;99.90
13186;DHT22;6658;53.080;7.428;2023-07-16T13:03:45;24.20;99.90
13186;DHT22;6658;53.080;7.428;2023-07-16T13:06:11;24.10;99.90
13186;DHT22;6658;53.080;7.428;2023-07-16T13:08:36;24.00;99.90
13186;DHT22;6658;53.080;7.428;2023-07-16T13:11:02;24.10;99.90
13186;DHT22;6658;53.080;7.428;2023-07-16T13:13:28;24.20;99.90
13186;DHT22;6658;53.080;7.428;2023-07-16T13:15:54;24.30;99.90
13186;DHT22;6658;53.080;7.428;2023-07-16T13:18:20;24.40;99.90
13186;DHT22;6658;53.080;7.428;2023-07-16T13:20:46;24.30;99.90
13186;DHT22;6658;53.080;7.428;2023-07-16T13:23:12;24.20;99.90
13186;DHT22;6658;53.080;7.428;2023-07-16T13:25:38;24.10;99.90
13186;DHT22;6658;53.080;7.428;2023-07-16T13:28:05;24.20;99.90
13186;DHT22;6658;53.080;7.428;2023-07-16T13:30:31;24.40;99.90
13186;DHT22;6658;53.080;7.428;2023-07-16T13:32:57;24.70;99.90
13186;DHT22;6658;53.080;7.428;2023-07-16T13:35:23;25.00;99.90
13186;DHT22;6658;53.080;7.428;2023-07-16T13:37:49;25.00;99.90
13186;DHT22;6658;53.080;7.428;2023-07-16T13:40:15;24.90;99.90
13186;DHT22;6658;53.080;7.428;2023-07-16T13:42:40;24.70;99.90
13186;DHT22;6658;53.080;7.428;2023-07-16T13:45:06;24.70;99.90
13186;DHT22;6658;53.080;7.428;2023-07-16T13:47:32;24.70;99.90
13186;DHT22;6658;53.080;7.428;2023-07-16T13:49:58;24.60;99.90
13186;DHT22;6658;53.080;7.428;2023-07-16T13:52:24;24.30;99.90
13186;DHT22;6658;53.080;7.428;2023-07-16T13:54:49;24.00;99.90
13186;DHT22;6658;53.080;7.428;2023-07-16T13:57:15;23.60;99.90
13186;DHT22;6658;53.080;7.428;2023-07-16T13:59:41;23.50;99.90
13186;DHT22;6658;53.080;7.428;2023-07-16T14:02:06;23.70;99.90
13186;DHT22;6658;53.080;7.428;2023-07-16T14:04:33;24.10;99.90
13186;DHT22;6658;53.080;7.428;2023-07-16T14:06:59;24.30;99.90
13186;DHT22;6658;53.080;7.428;2023-07-16T14:09:25;24.40;99.90
13186;DHT22;6658;53.080;7.428;2023-07-16T14:11:51;24.50;99.90
13186;DHT22;6658;53.080;7.428;2023-07-16T14:14:21;24.60;99.90
13186;DHT22;6658;53.080;7.428;2023-07-16T14:16:47;24.80;99.90
13186;DHT22;6658;53.080;7.428;2023-07-16T14:19:13;24.70;99.90
13186;DHT22;6658;53.080;7.428;2023-07-16T14:21:39;24.40;99.90
13186;DHT22;6658;53.080;7.428;2023-07-16T14:24:05;24.10;99.90
13186;DHT22;6658;53.080;7.428;2023-07-16T14:26:32;23.80;99.90
13186;DHT22;6658;53.080;7.428;2023-07-16T14:28:58;23.60;99.90
13186;DHT22;6658;53.080;7.428;2023-07-16T14:31:24;23.60;99.90
13186;DHT22;6658;53.080;7.428;2023-07-16T14:33:50;23.60;99.90
13186;DHT22;6658;53.080;7.428;2023-07-16T14:36:15;23.80;99.90
13186;DHT22;6658;53.080;7.428;2023-07-16T14:38:42;24.20;99.90
13186;DHT22;6658;53.080;7.428;2023-07-16T14:41:08;24.40;99.90
13186;DHT22;6658;53.080;7.428;2023-07-16T14:43:34;24.50;99.90
13186;DHT22;6658;53.080;7.428;2023-07-16T14:45:59;24.40;99.90
13186;DHT22;6658;53.080;7.428;2023-07-16T14:48:25;24.40;99.90
13186;DHT22;6658;53.080;7.428;2023-07-16T14:50:53;24.30;99.90
13186;DHT22;6658;53.080;7.428;2023-07-16T14:53:19;24.10;99.90
13186;DHT22;6658;53.080;7.428;2023-07-16T14:55:48;24.00;99.90
13186;DHT22;6658;53.080;7.428;2023-07-16T14:58:18;23.80;99.90
13186;DHT22;6658;53.080;7.428;2023-07-16T15:00:44;23.80;99.90
13186;DHT22;6658;53.080;7.428;2023-07-16T15:03:10;23.70;99.90
13186;DHT22;6658;53.080;7.428;2023-07-16T15:05:36;23.60;99.90
13186;DHT22;6658;53.080;7.428;2023-07-16T15:08:02;23.30;99.90
13186;DHT22;6658;53.080;7.428;2023-07-16T15:10:29;23.10;99.90
13186;DHT22;6658;53.080;7.428;2023-07-16T15:12:55;23.00;99.90
13186;DHT22;6658;53.080;7.428;2023-07-16T15:15:20;23.10;99.90
13186;DHT22;6658;53.080;7.428;2023-07-16T15:17:46;23.30;99.90
13186;DHT22;6658;53.080;7.428;2023-07-16T15:20:12;23.30;99.90
13186;DHT22;6658;53.080;7.428;2023-07-16T15:22:38;23.30;99.90
13186;DHT22;6658;53.080;7.428;2023-07-16T15:25:04;23.20;99.90
13186;DHT22;6658;53.080;7.428;2023-07-16T15:27:30;23.10;99.90
13186;DHT22;6658;53.080;7.428;2023-07-16T15:29:56;23.10;99.90
13186;DHT22;6658;53.080;7.428;2023-07-16T15:32:22;23.10;99.90
13186;DHT22;6658;53.080;7.428;2023-07-16T15:34:48;23.00;99.90
13186;DHT22;6658;53.080;7.428;2023-07-16T15:37:13;23.00;99.90
13186;DHT22;6658;53.080;7.428;2023-07-16T15:39:39;23.20;99.90
13186;DHT22;6658;53.080;7.428;2023-07-16T15:42:05;23.40;99.90
13186;DHT22;6658;53.080;7.428;2023-07-16T15:44:31;23.60;99.90
13186;DHT22;6658;53.080;7.428;2023-07-16T15:46:57;23.60;99.90
13186;DHT22;6658;53.080;7.428;2023-07-16T15:49:23;23.70;99.90
13186;DHT22;6658;53.080;7.428;2023-07-16T15:51:49;23.60;99.90
13186;DHT22;6658;53.080;7.428;2023-07-16T15:54:14;23.60;99.90
13186;DHT22;6658;53.080;7.428;2023-07-16T15:56:40;23.60;99.90
13186;DHT22;6658;53.080;7.428;2023-07-16T15:59:06;23.70;99.90
13186;DHT22;6658;53.080;7.428;2023-07-16T16:01:32;23.60;99.90
13186;DHT22;6658;53.080;7.428;2023-07-16T16:03:58;23.60;99.90
13186;DHT22;6658;53.080;7.428;2023-07-16T16:06:23;23.60;99.90
13186;DHT22;6658;53.080;7.428;2023-07-16T16:08:49;23.60;99.90
13186;DHT22;6658;53.080;7.428;2023-07-16T16:11:16;23.60;99.90
13186;DHT22;6658;53.080;7.428;2023-07-16T16:13:42;23.60;99.90
13186;DHT22;6658;53.080;7.428;2023-07-16T16:16:07;23.80;99.90
13186;DHT22;6658;53.080;7.428;2023-07-16T16:18:33;23.90;99.90
13186;DHT22;6658;53.080;7.428;2023-07-16T16:20:59;24.00;99.90
13186;DHT22;6658;53.080;7.428;2023-07-16T16:23:24;23.90;99.90
13186;DHT22;6658;53.080;7.428;2023-07-16T16:25:50;23.70;99.90
13186;DHT22;6658;53.080;7.428;2023-07-16T16:28:16;23.50;99.90
13186;DHT22;6658;53.080;7.428;2023-07-16T16:30:42;23.10;99.90
13186;DHT22;6658;53.080;7.428;2023-07-16T16:33:08;22.80;99.90
13186;DHT22;6658;53.080;7.428;2023-07-16T16:35:39;22.50;99.90
13186;DHT22;6658;53.080;7.428;2023-07-16T16:38:05;21.80;99.90
13186;DHT22;6658;53.080;7.428;2023-07-16T16:40:31;21.30;99.90
13186;DHT22;6658;53.080;7.428;2023-07-16T16:42:57;20.90;99.90
13186;DHT22;6658;53.080;7.428;2023-07-16T16:45:23;20.90;99.90
13186;DHT22;6658;53.080;7.428;2023-07-16T16:47:49;21.00;99.90
13186;DHT22;6658;53.080;7.428;2023-07-16T16:50:15;21.20;99.90
13186;DHT22;6658;53.080;7.428;2023-07-16T16:52:41;21.40;99.90
13186;DHT22;6658;53.080;7.428;2023-07-16T16:55:07;21.60;99.90
13186;DHT22;6658;53.080;7.428;2023-07-16T16:57:33;21.80;99.90
13186;DHT22;6658;53.080;7.428;2023-07-16T16:59:59;22.00;99.90
13186;DHT22;6658;53.080;7.428;2023-07-16T17:02:26;22.10;99.90
13186;DHT22;6658;53.080;7.428;2023-07-16T17:04:53;22.20;99.90
13186;DHT22;6658;53.080;7.428;2023-07-16T17:07:20;22.30;99.90
13186;DHT22;6658;53.080;7.428;2023-07-16T17:09:46;22.40;99.90
13186;DHT22;6658;53.080;7.428;2023-07-16T17:12:14;22.70;99.90
13186;DHT22;6658;53.080;7.428;2023-07-16T17:14:39;22.80;99.90
13186;DHT22;6658;53.080;7.428;2023-07-16T17:17:08;22.60;99.90
13186;DHT22;6658;53.080;7.428;2023-07-16T17:19:35;22.40;99.90
13186;DHT22;6658;53.080;7.428;2023-07-16T17:22:02;22.10;99.90
13186;DHT22;6658;53.080;7.428;2023-07-16T17:24:27;21.90;99.90
13186;DHT22;6658;53.080;7.428;2023-07-16T17:26:53;21.80;99.90
13186;DHT22;6658;53.080;7.428;2023-07-16T17:29:19;21.90;99.90
13186;DHT22;6658;53.080;7.428;2023-07-16T17:31:45;22.30;99.90
13186;DHT22;6658;53.080;7.428;2023-07-16T17:34:11;22.60;99.90
13186;DHT22;6658;53.080;7.428;2023-07-16T17:36:38;22.70;99.90
13186;DHT22;6658;53.080;7.428;2023-07-16T17:39:03;22.80;99.90
13186;DHT22;6658;53.080;7.428;2023-07-16T17:41:29;22.80;99.90
13186;DHT22;6658;53.080;7.428;2023-07-16T17:43:55;22.70;99.90
13186;DHT22;6658;53.080;7.428;2023-07-16T17:46:21;22.60;99.90
13186;DHT22;6658;53.080;7.428;2023-07-16T17:48:47;22.40;99.90
13186;DHT22;6658;53.080;7.428;2023-07-16T17:51:12;22.20;99.90
13186;DHT22;6658;53.080;7.428;2023-07-16T17:53:41;22.00;99.90
13186;DHT22;6658;53.080;7.428;2023-07-16T17:56:07;21.70;99.90
13186;DHT22;6658;53.080;7.428;2023-07-16T17:58:33;21.50;99.90
13186;DHT22;6658;53.080;7.428;2023-07-16T18:01:03;21.30;99.90
13186;DHT22;6658;53.080;7.428;2023-07-16T18:03:29;21.20;99.90
13186;DHT22;6658;53.080;7.428;2023-07-16T18:05:55;21.10;99.90
13186;DHT22;6658;53.080;7.428;2023-07-16T18:08:21;20.90;99.90
13186;DHT22;6658;53.080;7.428;2023-07-16T18:10:48;20.80;99.90
13186;DHT22;6658;53.080;7.428;2023-07-16T18:13:14;20.60;99.90
13186;DHT22;6658;53.080;7.428;2023-07-16T18:15:40;20.60;99.90
13186;DHT22;6658;53.080;7.428;2023-07-16T18:18:06;20.40;99.90